createdAt,value
2016-09-04T00:00:51.686Z,999.04
2016-09-04T00:02:03.970Z,999.02
2016-09-04T00:03:16.246Z,999
2016-09-04T00:04:28.546Z,999.01
2016-09-04T00:05:39.420Z,999.01
2016-09-04T00:06:51.700Z,999
2016-09-04T00:08:03.992Z,999.03
2016-09-04T00:09:16.273Z,998.99
2016-09-04T00:10:28.558Z,999
2016-09-04T00:11:40.861Z,999.02
2016-09-04T00:12:53.125Z,998.99
2016-09-04T00:14:04.701Z,998.97
2016-09-04T00:15:16.971Z,998.99
2016-09-04T00:16:29.232Z,999.01
2016-09-04T00:17:41.510Z,999
2016-09-04T00:18:53.778Z,999.06
2016-09-04T00:20:06.046Z,999.02
2016-09-04T00:21:17.601Z,999.04
2016-09-04T00:22:29.884Z,999.01
2016-09-04T00:23:42.161Z,998.96
2016-09-04T00:24:54.427Z,998.98
2016-09-04T00:26:06.705Z,999
2016-09-04T00:27:18.991Z,998.98
2016-09-04T00:28:30.544Z,999
2016-09-04T00:29:43.065Z,999.03
2016-09-04T00:30:55.393Z,999.02
2016-09-04T00:32:06.948Z,998.97
2016-09-04T00:33:19.219Z,998.98
2016-09-04T00:34:30.815Z,999.02
2016-09-04T00:35:42.390Z,998.99
2016-09-04T00:36:54.681Z,998.99
2016-09-04T00:38:06.242Z,998.95
2016-09-04T00:39:18.523Z,998.96
2016-09-04T00:40:30.786Z,998.95
2016-09-04T00:41:43.075Z,998.94
2016-09-04T00:42:55.346Z,998.91
2016-09-04T00:44:06.917Z,998.92
2016-09-04T00:45:19.194Z,998.95
2016-09-04T00:46:31.457Z,998.89
2016-09-04T00:47:43.030Z,998.89
2016-09-04T00:48:53.898Z,998.92
2016-09-04T00:50:06.166Z,998.91
2016-09-04T00:51:18.576Z,998.89
2016-09-04T00:52:30.165Z,998.84
2016-09-04T00:53:41.739Z,998.83
2016-09-04T00:54:54.013Z,998.78
2016-09-04T00:56:06.295Z,998.8
2016-09-04T00:57:18.576Z,998.79
2016-09-04T00:58:30.866Z,998.81
2016-09-04T00:59:43.118Z,998.83
2016-09-04T01:00:54.683Z,998.79
2016-09-04T01:02:06.972Z,998.77
2016-09-04T01:03:19.257Z,998.77
2016-09-04T01:04:31.546Z,998.76
2016-09-04T01:05:42.406Z,998.78
2016-09-04T01:06:54.677Z,998.82
2016-09-04T01:08:06.945Z,998.81
2016-09-04T01:09:19.224Z,998.81
2016-09-04T01:10:30.818Z,998.78
2016-09-04T01:11:42.389Z,998.8
2016-09-04T01:12:54.666Z,998.82
2016-09-04T01:14:06.936Z,998.81
2016-09-04T01:15:18.522Z,998.81
2016-09-04T01:16:30.810Z,998.82
2016-09-04T01:17:42.372Z,998.82
2016-09-04T01:18:54.657Z,998.82
2016-09-04T01:20:06.929Z,998.86
2016-09-04T01:21:19.198Z,998.83
2016-09-04T01:22:31.488Z,998.85
2016-09-04T01:23:43.050Z,998.85
2016-09-04T01:24:54.644Z,998.84
2016-09-04T01:26:06.199Z,998.83
2016-09-04T01:27:17.768Z,998.8
2016-09-04T01:28:30.044Z,998.8
2016-09-04T01:29:42.310Z,998.8
2016-09-04T01:30:54.589Z,998.8
2016-09-04T01:32:06.928Z,998.8
2016-09-04T01:33:19.248Z,998.82
2016-09-04T01:34:30.861Z,998.83
2016-09-04T01:35:43.150Z,998.82
2016-09-04T01:36:55.449Z,998.83
2016-09-04T01:38:07.028Z,998.81
2016-09-04T01:39:19.304Z,998.83
2016-09-04T01:40:31.580Z,998.85
2016-09-04T01:41:43.861Z,998.82
2016-09-04T01:42:56.137Z,998.81
2016-09-04T01:44:08.419Z,998.82
2016-09-04T01:45:20.006Z,998.83
2016-09-04T01:46:32.285Z,998.81
2016-09-04T01:47:44.557Z,998.84
2016-09-04T01:48:56.822Z,998.84
2016-09-04T01:50:09.101Z,998.81
2016-09-04T01:51:21.371Z,998.81
2016-09-04T01:52:33.643Z,998.77
2016-09-04T01:53:45.925Z,998.76
2016-09-04T01:54:57.481Z,998.78
2016-09-04T01:56:09.756Z,998.76
2016-09-04T01:57:22.015Z,998.81
2016-09-04T01:58:32.881Z,998.78
2016-09-04T01:59:43.972Z,998.81
2016-09-04T02:00:56.254Z,998.77
2016-09-04T02:02:07.820Z,998.8
2016-09-04T02:03:20.113Z,998.84
2016-09-04T02:04:31.691Z,998.84
2016-09-04T02:05:43.962Z,998.84
2016-09-04T02:06:56.258Z,998.86
2016-09-04T02:08:07.819Z,998.79
2016-09-04T02:09:20.093Z,998.82
2016-09-04T02:10:32.370Z,998.82
2016-09-04T02:11:44.659Z,998.84
2016-09-04T02:12:56.221Z,998.83
2016-09-04T02:14:08.490Z,998.82
2016-09-04T02:15:20.781Z,998.83
2016-09-04T02:16:33.045Z,998.8
2016-09-04T02:17:45.304Z,998.8
2016-09-04T02:18:56.872Z,998.84
2016-09-04T02:20:09.153Z,998.76
2016-09-04T02:21:20.725Z,998.79
2016-09-04T02:22:32.998Z,998.79
2016-09-04T02:23:45.282Z,998.78
2016-09-04T02:24:57.575Z,998.77
2016-09-04T02:26:09.840Z,998.76
2016-09-04T02:27:22.109Z,998.73
2016-09-04T02:28:34.391Z,998.77
2016-09-04T02:29:46.672Z,998.73
2016-09-04T02:30:57.576Z,998.74
2016-09-04T02:32:09.876Z,998.77
2016-09-04T02:33:22.146Z,998.76
2016-09-04T02:34:33.703Z,998.78
2016-09-04T02:35:45.980Z,998.75
2016-09-04T02:36:58.252Z,998.76
2016-09-04T02:38:10.079Z,998.74
2016-09-04T02:39:22.375Z,998.75
2016-09-04T02:40:34.673Z,998.71
2016-09-04T02:41:46.253Z,998.66
2016-09-04T02:42:58.520Z,998.68
2016-09-04T02:44:10.778Z,998.7
2016-09-04T02:45:23.047Z,998.69
2016-09-04T02:46:35.312Z,998.66
2016-09-04T02:47:47.590Z,998.67
2016-09-04T02:48:59.863Z,998.63
2016-09-04T02:50:12.109Z,998.63
2016-09-04T02:51:24.437Z,998.56
2016-09-04T02:52:36.702Z,998.58
2016-09-04T02:53:48.974Z,998.56
2016-09-04T02:55:01.231Z,998.59
2016-09-04T02:56:13.507Z,998.57
2016-09-04T02:57:25.794Z,998.62
2016-09-04T02:58:37.362Z,998.57
2016-09-04T02:59:48.228Z,998.54
2016-09-04T03:01:00.499Z,998.59
2016-09-04T03:32:36.400Z,998.48
2016-09-04T03:33:48.670Z,998.44
2016-09-04T03:35:00.970Z,998.43
2016-09-04T03:36:13.226Z,998.45
2016-09-04T03:37:24.783Z,998.45
2016-09-04T03:38:37.074Z,998.46
2016-09-04T03:39:48.658Z,998.42
2016-09-04T03:41:00.203Z,998.42
2016-09-04T03:42:12.479Z,998.38
2016-09-04T03:43:24.767Z,998.39
2016-09-04T03:44:36.324Z,998.39
2016-09-04T03:45:48.578Z,998.42
2016-09-04T03:47:01.081Z,998.41
2016-09-04T03:48:11.954Z,998.41
2016-09-04T03:49:23.519Z,998.36
2016-09-04T03:50:34.375Z,998.38
2016-09-04T03:51:46.664Z,998.37
2016-09-04T03:52:58.932Z,998.36
2016-09-04T03:54:11.191Z,998.38
2016-09-04T03:55:22.057Z,998.39
2016-09-04T03:56:34.328Z,998.4
2016-09-04T03:57:45.916Z,998.4
2016-09-04T03:58:58.207Z,998.46
2016-09-04T04:00:09.790Z,998.44
2016-09-04T04:01:21.358Z,998.46
2016-09-04T04:02:33.637Z,998.45
2016-09-04T04:03:45.217Z,998.42
2016-09-04T04:04:56.796Z,998.4
2016-09-04T04:06:09.073Z,998.44
2016-09-04T04:07:21.334Z,998.4
2016-09-04T04:08:33.589Z,998.42
2016-09-04T04:09:45.151Z,998.44
2016-09-04T04:10:57.408Z,998.43
2016-09-04T04:12:08.975Z,998.5
2016-09-04T04:13:21.261Z,998.51
2016-09-04T04:14:33.540Z,998.51
2016-09-04T04:15:45.805Z,998.52
2016-09-04T04:16:58.075Z,998.53
2016-09-04T04:18:10.357Z,998.54
2016-09-04T04:19:22.651Z,998.52
2016-09-04T04:20:33.509Z,998.52
2016-09-04T04:21:45.058Z,998.54
2016-09-04T04:22:57.359Z,998.55
2016-09-04T04:24:09.886Z,998.55
2016-09-04T04:25:22.160Z,998.56
2016-09-04T04:26:33.014Z,998.59
2016-09-04T04:27:44.615Z,998.53
2016-09-04T04:28:55.479Z,998.54
2016-09-04T04:30:07.997Z,998.54
2016-09-04T04:31:20.280Z,998.57
2016-09-04T04:32:32.565Z,998.59
2016-09-04T04:33:44.832Z,998.56
2016-09-04T04:34:57.088Z,998.56
2016-09-04T04:36:08.679Z,998.56
2016-09-04T04:37:18.842Z,998.56
2016-09-04T04:38:31.114Z,998.54
2016-09-04T04:39:43.389Z,998.56
2016-09-04T04:40:55.652Z,998.58
2016-09-04T04:42:07.935Z,998.56
2016-09-04T04:43:18.793Z,998.59
2016-09-04T04:44:31.095Z,998.64
2016-09-04T04:45:43.376Z,998.7
2016-09-04T04:46:55.662Z,998.66
2016-09-04T04:48:07.974Z,998.66
2016-09-04T04:49:20.248Z,998.7
2016-09-04T04:50:31.802Z,998.74
2016-09-04T04:51:44.090Z,998.71
2016-09-04T04:52:55.648Z,998.78
2016-09-04T04:54:07.217Z,998.79
2016-09-04T04:55:19.489Z,998.72
2016-09-04T04:56:31.768Z,998.73
2016-09-04T04:57:44.049Z,998.76
2016-09-04T04:58:56.335Z,998.84
2016-09-04T05:00:09.092Z,998.73
2016-09-04T05:01:21.359Z,998.74
2016-09-04T05:02:32.917Z,998.85
2016-09-04T05:03:44.493Z,998.84
2016-09-04T05:04:56.767Z,998.84
2016-09-04T05:06:08.337Z,998.84
2016-09-04T05:07:20.611Z,998.78
2016-09-04T05:08:32.875Z,998.74
2016-09-04T05:09:44.457Z,998.77
2016-09-04T05:10:56.713Z,998.79
2016-09-04T05:12:08.290Z,998.81
2016-09-04T05:13:20.558Z,998.84
2016-09-04T05:14:32.827Z,998.84
2016-09-04T05:15:43.687Z,998.84
2016-09-04T05:16:55.949Z,998.87
2016-09-04T05:18:08.224Z,998.84
2016-09-04T05:19:20.518Z,998.83
2016-09-04T05:20:32.793Z,998.76
2016-09-04T05:21:45.070Z,998.84
2016-09-04T05:22:57.360Z,998.8
2016-09-04T05:24:09.622Z,998.81
2016-09-04T05:25:21.920Z,998.82
2016-09-04T05:26:34.169Z,998.83
2016-09-04T05:27:45.737Z,998.84
2016-09-04T05:28:58.010Z,998.79
2016-09-04T05:30:08.904Z,998.83
2016-09-04T05:31:21.175Z,998.85
2016-09-04T05:32:33.449Z,998.85
2016-09-04T05:33:45.010Z,998.84
2016-09-04T05:34:56.568Z,998.83
2016-09-04T05:36:08.845Z,998.86
2016-09-04T05:37:20.433Z,998.85
2016-09-04T05:38:32.717Z,998.84
2016-09-04T05:39:44.264Z,998.87
2016-09-04T05:40:56.556Z,998.9
2016-09-04T05:42:08.834Z,998.87
2016-09-04T05:43:21.109Z,998.82
2016-09-04T05:44:33.386Z,998.89
2016-09-04T05:45:45.651Z,998.91
2016-09-04T05:46:57.915Z,998.88
2016-09-04T05:48:10.202Z,998.89
2016-09-04T05:49:22.469Z,998.87
2016-09-04T05:50:34.748Z,998.88
2016-09-04T05:51:47.010Z,998.92
2016-09-04T05:52:57.885Z,998.92
2016-09-04T05:54:10.181Z,998.92
2016-09-04T05:55:22.463Z,998.92
2016-09-04T05:56:34.749Z,998.91
2016-09-04T05:57:47.032Z,998.92
2016-09-04T05:58:59.298Z,998.94
2016-09-04T06:00:11.562Z,998.93
2016-09-04T06:01:22.460Z,998.93
2016-09-04T06:02:34.050Z,998.95
2016-09-04T06:03:46.332Z,998.94
2016-09-04T06:04:58.608Z,998.97
2016-09-04T06:06:10.890Z,998.94
2016-09-04T06:07:23.192Z,998.94
2016-09-04T06:08:34.756Z,998.98
2016-09-04T06:09:47.037Z,998.96
2016-09-04T06:10:59.319Z,998.94
2016-09-04T06:12:11.600Z,998.96
2016-09-04T06:13:23.889Z,998.94
2016-09-04T06:14:36.161Z,998.95
2016-09-04T06:15:47.747Z,998.97
2016-09-04T06:16:58.599Z,998.96
2016-09-04T06:18:09.473Z,998.99
2016-09-04T06:19:21.752Z,998.99
2016-09-04T06:20:34.033Z,998.93
2016-09-04T06:21:45.608Z,998.97
2016-09-04T06:22:57.876Z,998.96
2016-09-04T06:24:10.157Z,998.96
2016-09-04T06:25:22.439Z,999
2016-09-04T06:26:34.716Z,999
2016-09-04T06:27:46.992Z,998.99
2016-09-04T06:28:59.279Z,999.02
2016-09-04T06:30:11.561Z,998.97
2016-09-04T06:31:23.846Z,998.96
2016-09-04T06:32:36.129Z,998.98
2016-09-04T06:33:48.429Z,998.94
2016-09-04T06:35:00.711Z,998.96
2016-09-04T06:36:13.013Z,998.94
2016-09-04T06:37:25.301Z,998.94
2016-09-04T06:38:36.859Z,998.96
2016-09-04T06:39:49.139Z,998.97
2016-09-04T06:41:01.428Z,998.96
2016-09-04T06:42:13.711Z,998.97
2016-09-04T06:43:26.005Z,998.97
2016-09-04T06:44:38.300Z,998.98
2016-09-04T06:45:50.572Z,998.95
2016-09-04T06:47:02.859Z,998.94
2016-09-04T06:48:15.150Z,998.95
2016-09-04T06:49:26.729Z,998.93
2016-09-04T06:50:39.020Z,998.97
2016-09-04T06:51:51.290Z,999.01
2016-09-04T06:53:02.878Z,998.99
2016-09-04T06:54:15.147Z,999.02
2016-09-04T06:55:27.424Z,998.99
2016-09-04T06:56:39.697Z,999.01
2016-09-04T06:57:51.278Z,999.01
2016-09-04T06:59:02.862Z,998.96
2016-09-04T07:00:15.133Z,999.02
2016-09-04T07:01:27.399Z,998.99
2016-09-04T07:02:38.980Z,999.02
2016-09-04T07:03:51.262Z,999.03
2016-09-04T07:05:03.554Z,999.03
2016-09-04T07:06:15.833Z,999.05
2016-09-04T07:07:28.122Z,999.02
2016-09-04T07:08:40.398Z,999
2016-09-04T07:09:52.681Z,999.02
2016-09-04T07:11:04.239Z,998.97
2016-09-04T07:12:16.529Z,998.93
2016-09-04T07:13:28.813Z,998.94
2016-09-04T07:14:41.075Z,998.91
2016-09-04T07:15:52.652Z,998.91
2016-09-04T07:17:04.914Z,998.91
2016-09-04T07:18:15.791Z,998.95
2016-09-04T07:19:28.068Z,998.96
2016-09-04T07:20:40.328Z,998.95
2016-09-04T07:21:52.621Z,998.96
2016-09-04T07:23:04.908Z,998.98
2016-09-04T07:24:17.169Z,998.94
2016-09-04T07:25:28.734Z,998.98
2016-09-04T07:26:40.293Z,998.93
2016-09-04T07:27:52.600Z,998.95
2016-09-04T07:29:04.885Z,998.95
2016-09-04T07:30:16.468Z,998.94
2016-09-04T07:31:27.376Z,998.91
2016-09-04T07:32:39.653Z,998.9
2016-09-04T07:33:50.523Z,998.87
2016-09-04T07:35:02.806Z,998.87
2016-09-04T07:36:15.083Z,998.87
2016-09-04T07:37:26.653Z,998.86
2016-09-04T07:38:38.926Z,998.86
2016-09-04T07:39:50.539Z,998.85
2016-09-04T07:41:02.105Z,998.84
2016-09-04T07:42:13.690Z,998.83
2016-09-04T07:43:25.980Z,998.85
2016-09-04T07:44:37.628Z,998.84
2016-09-04T07:45:49.895Z,998.82
2016-09-04T07:47:02.157Z,998.84
2016-09-04T07:48:14.442Z,998.84
2016-09-04T07:49:26.729Z,998.81
2016-09-04T07:50:38.994Z,998.76
2016-09-04T07:51:50.570Z,998.73
2016-09-04T07:53:03.109Z,998.71
2016-09-04T07:54:15.380Z,998.69
2016-09-04T07:55:27.675Z,998.68
2016-09-04T07:56:39.951Z,998.7
2016-09-04T07:57:52.257Z,998.66
2016-09-04T07:59:04.769Z,998.7
2016-09-04T08:00:16.350Z,998.67
2016-09-04T08:01:27.205Z,998.69
2016-09-04T08:02:38.059Z,998.68
2016-09-04T08:03:50.351Z,998.66
2016-09-04T08:05:02.617Z,998.67
2016-09-04T08:06:14.199Z,998.68
2016-09-04T08:07:25.764Z,998.66
2016-09-04T08:08:38.041Z,998.66
2016-09-04T08:09:50.350Z,998.67
2016-09-04T08:11:02.637Z,998.67
2016-09-04T08:12:13.507Z,998.64
2016-09-04T08:13:25.797Z,998.66
2016-09-04T08:14:38.056Z,998.67
2016-09-04T08:15:50.352Z,998.67
2016-09-04T08:17:01.912Z,998.67
2016-09-04T08:18:13.508Z,998.64
2016-09-04T08:19:25.081Z,998.65
2016-09-04T08:20:37.358Z,998.64
2016-09-04T08:21:49.651Z,998.69
2016-09-04T08:23:01.209Z,998.65
2016-09-04T08:24:13.509Z,998.61
2016-09-04T08:25:25.783Z,998.58
2016-09-04T08:26:38.054Z,998.58
2016-09-04T08:27:49.625Z,998.56
2016-09-04T08:29:01.185Z,998.56
2016-09-04T08:30:12.998Z,998.53
2016-09-04T08:31:25.280Z,998.52
2016-09-04T08:32:37.570Z,998.51
2016-09-04T08:33:49.139Z,998.51
2016-09-04T08:35:01.419Z,998.5
2016-09-04T08:36:13.702Z,998.5
2016-09-04T08:37:24.590Z,998.51
2016-09-04T08:38:36.866Z,998.52
2016-09-04T08:39:49.156Z,998.46
2016-09-04T08:41:01.454Z,998.48
2016-09-04T08:42:13.725Z,998.46
2016-09-04T08:43:25.994Z,998.47
2016-09-04T08:44:38.311Z,998.49
2016-09-04T08:45:49.877Z,998.42
2016-09-04T08:47:02.154Z,998.42
2016-09-04T08:48:14.453Z,998.39
2016-09-04T08:49:26.749Z,998.38
2016-09-04T08:50:39.067Z,998.41
2016-09-04T08:51:51.351Z,998.36
2016-09-04T08:53:03.641Z,998.34
2016-09-04T08:54:15.209Z,998.35
2016-09-04T08:55:27.521Z,998.33
2016-09-04T08:56:39.803Z,998.33
2016-09-04T08:57:52.064Z,998.32
2016-09-04T08:59:04.345Z,998.3
2016-09-04T09:00:15.917Z,998.29
2016-09-04T09:01:28.200Z,998.34
2016-09-04T09:02:40.487Z,998.28
2016-09-04T09:03:52.776Z,998.3
2016-09-04T09:05:05.045Z,998.27
2016-09-04T09:06:16.618Z,998.26
2016-09-04T09:07:28.222Z,998.26
2016-09-04T09:08:40.532Z,998.18
2016-09-04T09:09:52.832Z,998.22
2016-09-04T09:11:05.143Z,998.22
2016-09-04T09:12:16.718Z,998.16
2016-09-04T09:13:28.994Z,998.15
2016-09-04T09:14:40.570Z,998.14
2016-09-04T09:15:52.154Z,998.17
2016-09-04T09:17:04.447Z,998.16
2016-09-04T09:18:16.735Z,998.14
2016-09-04T09:19:29.030Z,998.15
2016-09-04T09:20:41.311Z,998.15
2016-09-04T09:21:53.595Z,998.14
2016-09-04T09:23:05.896Z,998.1
2016-09-04T09:24:17.473Z,998.1
2016-09-04T09:25:29.750Z,998.1
2016-09-04T09:26:40.625Z,998.06
2016-09-04T09:27:52.212Z,998.06
2016-09-04T09:29:03.795Z,998.01
2016-09-04T09:30:16.077Z,998
2016-09-04T09:31:27.652Z,997.93
2016-09-04T09:32:39.212Z,997.96
2016-09-04T09:33:50.789Z,997.94
2016-09-04T09:35:03.067Z,997.93
2016-09-04T09:36:15.360Z,997.89
2016-09-04T09:37:27.621Z,997.93
2016-09-04T09:38:38.481Z,997.88
2016-09-04T09:39:50.751Z,997.84
2016-09-04T09:41:03.048Z,997.83
2016-09-04T09:42:15.380Z,997.85
2016-09-04T09:43:27.669Z,997.84
2016-09-04T09:44:39.937Z,997.85
2016-09-04T09:45:52.231Z,997.82
2016-09-04T09:47:04.516Z,997.8
2016-09-04T09:48:16.071Z,997.78
2016-09-04T09:49:28.365Z,997.76
2016-09-04T09:50:40.643Z,997.72
2016-09-04T09:51:52.935Z,997.73
2016-09-04T09:53:05.218Z,997.75
2016-09-04T09:54:17.503Z,997.71
2016-09-04T09:55:29.094Z,997.66
2016-09-04T09:56:41.388Z,997.69
2016-09-04T09:57:52.989Z,997.67
2016-09-04T09:59:05.285Z,997.61
2016-09-04T10:00:17.562Z,997.61
2016-09-04T10:01:28.447Z,997.63
2016-09-04T10:02:40.740Z,997.59
2016-09-04T10:03:53.065Z,997.59
2016-09-04T10:05:05.379Z,997.56
2016-09-04T10:06:16.972Z,997.53
2016-09-04T10:07:29.255Z,997.59
2016-09-04T10:08:41.537Z,997.6
2016-09-04T10:09:53.835Z,997.55
2016-09-04T10:11:06.122Z,997.57
2016-09-04T10:12:18.390Z,997.54
2016-09-04T10:13:30.678Z,997.53
2016-09-04T10:14:42.983Z,997.5
2016-09-04T10:15:55.253Z,997.46
2016-09-04T10:17:07.552Z,997.44
2016-09-04T10:18:19.833Z,997.43
2016-09-04T10:19:31.435Z,997.38
2016-09-04T10:20:43.730Z,997.33
2016-09-04T10:21:56.007Z,997.38
2016-09-04T10:23:08.315Z,997.34
2016-09-04T10:24:19.891Z,997.34
2016-09-04T10:25:32.185Z,997.31
2016-09-04T10:26:44.476Z,997.31
2016-09-04T10:27:56.084Z,997.27
2016-09-04T10:29:08.365Z,997.26
2016-09-04T10:30:20.661Z,997.25
2016-09-04T10:31:32.218Z,997.26
2016-09-04T10:32:44.486Z,997.26
2016-09-04T10:33:56.820Z,997.21
2016-09-04T10:35:09.085Z,997.3
2016-09-04T10:36:21.366Z,997.23
2016-09-04T10:37:32.938Z,997.24
2016-09-04T10:38:44.519Z,997.25
2016-09-04T10:39:56.807Z,997.25
2016-09-04T10:41:09.106Z,997.25
2016-09-04T10:42:20.701Z,997.2
2016-09-04T10:43:32.985Z,997.25
2016-09-04T10:44:45.272Z,997.23
2016-09-04T10:45:56.884Z,997.22
2016-09-04T10:47:09.189Z,997.24
2016-09-04T10:48:21.679Z,997.22
2016-09-04T10:49:33.962Z,997.19
2016-09-04T10:50:44.851Z,997.18
2016-09-04T10:51:57.171Z,997.1
2016-09-04T10:53:09.465Z,997.11
2016-09-04T10:54:21.058Z,997.05
2016-09-04T10:55:33.343Z,997.04
2016-09-04T10:56:44.938Z,997.01
2016-09-04T10:57:57.228Z,997.01
2016-09-04T10:59:08.819Z,996.97
2016-09-04T11:00:21.120Z,996.92
2016-09-04T11:01:33.407Z,996.88
2016-09-04T11:02:45.699Z,996.86
2016-09-04T11:03:58.210Z,996.83
2016-09-04T11:05:10.517Z,996.78
2016-09-04T11:06:22.096Z,996.82
2016-09-04T11:07:34.375Z,996.82
2016-09-04T11:08:46.684Z,996.79
2016-09-04T11:09:59.374Z,996.78
2016-09-04T11:11:11.664Z,996.74
2016-09-04T11:12:23.951Z,996.75
2016-09-04T11:13:35.540Z,996.73
2016-09-04T11:14:47.827Z,996.73
2016-09-04T11:15:59.394Z,996.74
2016-09-04T11:17:11.673Z,996.72
2016-09-04T11:18:23.959Z,996.69
2016-09-04T11:19:34.820Z,996.67
2016-09-04T11:20:46.453Z,996.65
2016-09-04T11:21:58.043Z,996.64
2016-09-04T11:23:10.326Z,996.63
2016-09-04T11:24:21.897Z,996.58
2016-09-04T11:25:34.197Z,996.6
2016-09-04T11:26:45.090Z,996.61
2016-09-04T11:27:57.423Z,996.54
2016-09-04T11:29:09.731Z,996.57
2016-09-04T11:30:22.035Z,996.57
2016-09-04T11:31:33.616Z,996.59
2016-09-04T11:32:45.897Z,996.58
2016-09-04T11:33:57.473Z,996.53
2016-09-04T11:35:09.064Z,996.55
2016-09-04T11:36:21.348Z,996.5
2016-09-04T11:37:33.650Z,996.5
2016-09-04T11:38:45.222Z,996.49
2016-09-04T11:39:57.523Z,996.45
2016-09-04T11:41:09.807Z,996.43
2016-09-04T11:42:22.096Z,996.44
2016-09-04T11:43:33.673Z,996.42
2016-09-04T11:44:45.972Z,996.46
2016-09-04T11:45:58.246Z,996.41
2016-09-04T11:47:09.892Z,996.42
2016-09-04T11:48:22.158Z,996.41
2016-09-04T11:49:34.433Z,996.33
2016-09-04T11:50:46.743Z,996.37
2016-09-04T11:51:59.054Z,996.4
2016-09-04T11:53:11.362Z,996.35
2016-09-04T11:54:23.620Z,996.36
2016-09-04T11:55:35.219Z,996.33
2016-09-04T11:56:47.512Z,996.35
2016-09-04T11:57:59.121Z,996.23
2016-09-04T11:59:11.398Z,996.28
2016-09-04T12:00:23.699Z,996.23
2016-09-04T12:01:35.303Z,996.17
2016-09-04T12:02:46.893Z,996.19
2016-09-04T12:03:59.200Z,996.2
2016-09-04T12:05:10.791Z,996.17
2016-09-04T12:06:22.399Z,996.13
2016-09-04T12:07:34.705Z,996.12
2016-09-04T12:08:46.982Z,996.12
2016-09-04T12:09:59.281Z,996.14
2016-09-04T12:11:11.587Z,996.12
2016-09-04T12:12:23.871Z,996.11
2016-09-04T12:13:36.145Z,996.08
2016-09-04T12:14:47.736Z,996.05
2016-09-04T12:16:00.032Z,996
2016-09-04T12:17:12.310Z,996
2016-09-04T12:18:24.593Z,995.99
2016-09-04T12:19:36.880Z,995.98
2016-09-04T12:20:48.461Z,996.01
2016-09-04T12:22:00.768Z,995.96
2016-09-04T12:23:12.371Z,995.99
2016-09-04T12:24:23.935Z,995.96
2016-09-04T12:25:36.222Z,995.94
2016-09-04T12:26:48.526Z,995.96
2016-09-04T12:28:00.803Z,995.91
2016-09-04T12:29:13.099Z,995.95
2016-09-04T12:30:25.414Z,995.85
2016-09-04T12:31:37.693Z,995.91
2016-09-04T12:32:50.037Z,995.87
2016-09-04T12:34:02.326Z,995.89
2016-09-04T12:35:13.934Z,995.88
2016-09-04T12:36:26.214Z,995.87
2016-09-04T12:37:37.094Z,995.86
2016-09-04T12:38:48.680Z,995.81
2016-09-04T12:40:00.969Z,995.77
2016-09-04T12:41:13.260Z,995.81
2016-09-04T12:42:25.560Z,995.82
2016-09-04T12:43:37.859Z,995.81
2016-09-04T12:44:50.157Z,995.84
2016-09-04T12:46:02.439Z,995.81
2016-09-04T12:47:14.025Z,995.83
2016-09-04T12:48:26.291Z,995.83
2016-09-04T12:49:37.179Z,995.8
2016-09-04T12:50:49.480Z,995.82
2016-09-04T12:52:01.784Z,995.89
2016-09-04T12:53:14.086Z,995.8
2016-09-04T12:54:26.440Z,995.82
2016-09-04T12:55:38.770Z,995.83
2016-09-04T12:56:51.047Z,995.73
2016-09-04T12:58:03.379Z,995.78
2016-09-04T12:59:15.678Z,995.73
2016-09-04T13:00:26.572Z,995.72
2016-09-04T13:01:38.890Z,995.77
2016-09-04T13:02:51.188Z,995.73
2016-09-04T13:04:03.510Z,995.74
2016-09-04T13:05:15.820Z,995.64
2016-09-04T13:06:28.125Z,995.69
2016-09-04T13:07:40.419Z,995.65
2016-09-04T13:08:52.720Z,995.65
2016-09-04T13:10:04.303Z,995.59
2016-09-04T13:11:15.894Z,995.57
2016-09-04T13:12:27.477Z,995.53
2016-09-04T13:13:39.745Z,995.54
2016-09-04T13:14:52.042Z,995.52
2016-09-04T13:16:04.335Z,995.53
2016-09-04T13:17:16.625Z,995.47
2016-09-04T13:18:28.212Z,995.45
2016-09-04T13:19:40.533Z,995.45
2016-09-04T13:20:52.848Z,995.5
2016-09-04T13:22:05.138Z,995.43
2016-09-04T13:23:17.409Z,995.42
2016-09-04T13:24:29.000Z,995.41
2016-09-04T13:25:41.529Z,995.34
2016-09-04T13:26:53.810Z,995.41
2016-09-04T13:28:06.113Z,995.43
2016-09-04T13:29:18.426Z,995.42
2016-09-04T13:30:30.722Z,995.42
2016-09-04T13:31:43.041Z,995.45
2016-09-04T13:32:55.349Z,995.39
2016-09-04T13:34:07.648Z,995.46
2016-09-04T13:35:19.954Z,995.4
2016-09-04T13:36:31.550Z,995.38
2016-09-04T13:37:44.023Z,995.39
2016-09-04T13:38:56.318Z,995.31
2016-09-04T13:40:07.912Z,995.31
2016-09-04T13:41:19.539Z,995.25
2016-09-04T13:42:31.844Z,995.29
2016-09-04T13:43:43.423Z,995.27
2016-09-04T13:44:55.006Z,995.25
2016-09-04T13:46:07.340Z,995.27
2016-09-04T13:47:18.956Z,995.28
2016-09-04T13:48:30.517Z,995.28
2016-09-04T13:49:42.822Z,995.3
2016-09-04T13:50:55.128Z,995.26
2016-09-04T13:52:07.419Z,995.29
2016-09-04T13:53:19.032Z,995.24
2016-09-04T13:54:31.330Z,995.21
2016-09-04T13:55:43.648Z,995.17
2016-09-04T13:56:55.946Z,995.2
2016-09-04T13:58:07.525Z,995.11
2016-09-04T13:59:19.824Z,995.02
2016-09-04T14:00:32.141Z,995.1
2016-09-04T14:01:44.455Z,995.08
2016-09-04T14:02:56.785Z,995.05
2016-09-04T14:04:09.070Z,994.97
2016-09-04T14:05:21.379Z,994.98
2016-09-04T14:06:33.901Z,995.02
2016-09-04T14:07:46.203Z,995
2016-09-04T14:08:58.502Z,994.94
2016-09-04T14:10:09.394Z,994.95
2016-09-04T14:11:21.685Z,995.02
2016-09-04T14:12:33.988Z,995
2016-09-04T14:13:46.289Z,995
2016-09-04T14:14:58.637Z,994.99
2016-09-04T14:16:10.223Z,995.01
2016-09-04T14:17:22.547Z,995.03
2016-09-04T14:18:34.856Z,994.99
2016-09-04T14:19:46.418Z,995.06
2016-09-04T14:20:58.699Z,994.92
2016-09-04T14:22:11.002Z,994.88
2016-09-04T14:23:23.316Z,994.82
2016-09-04T14:24:35.619Z,994.94
2016-09-04T14:25:47.934Z,994.94
2016-09-04T14:26:59.503Z,994.93
2016-09-04T14:28:11.805Z,994.91
2016-09-04T14:29:23.399Z,994.9
2016-09-04T14:30:34.322Z,994.93
2016-09-04T14:31:45.928Z,994.9
2016-09-04T14:32:58.257Z,994.92
2016-09-04T14:34:10.091Z,994.94
2016-09-04T14:35:22.385Z,994.92
2016-09-04T14:36:33.973Z,994.9
2016-09-04T14:37:46.280Z,994.89
2016-09-04T14:38:57.851Z,994.84
2016-09-04T14:40:10.127Z,994.89
2016-09-04T14:41:22.428Z,994.86
2016-09-04T14:42:34.720Z,994.85
2016-09-04T14:43:47.023Z,994.86
2016-09-04T14:44:59.301Z,994.92
2016-09-04T14:46:11.599Z,994.93
2016-09-04T14:47:23.885Z,994.91
2016-09-04T14:48:35.470Z,994.9
2016-09-04T14:49:47.770Z,994.94
2016-09-04T14:51:00.077Z,994.95
2016-09-04T14:52:12.358Z,994.93
2016-09-04T14:53:24.641Z,994.92
2016-09-04T14:54:36.934Z,994.91
2016-09-04T14:55:49.232Z,994.86
2016-09-04T14:57:01.541Z,994.86
2016-09-04T14:58:13.858Z,994.84
2016-09-04T14:59:26.140Z,994.86
2016-09-04T15:00:38.429Z,994.85
2016-09-04T15:01:50.720Z,994.87
2016-09-04T15:03:00.971Z,994.86
2016-09-04T15:04:12.555Z,994.84
2016-09-04T15:05:24.853Z,994.87
2016-09-04T15:06:37.141Z,994.84
2016-09-04T15:07:48.721Z,994.79
2016-09-04T15:09:01.020Z,994.82
2016-09-04T15:10:13.316Z,994.77
2016-09-04T15:11:25.608Z,994.75
2016-09-04T15:12:37.899Z,994.76
2016-09-04T15:13:49.485Z,994.73
2016-09-04T15:15:01.780Z,994.72
2016-09-04T15:16:14.061Z,994.69
2016-09-04T15:17:26.359Z,994.68
2016-09-04T15:18:38.646Z,994.63
2016-09-04T15:19:50.945Z,994.61
2016-09-04T15:21:02.541Z,994.63
2016-09-04T15:22:14.822Z,994.55
2016-09-04T15:23:27.142Z,994.57
2016-09-04T15:24:38.720Z,994.57
2016-09-04T15:25:51.035Z,994.49
2016-09-04T15:27:02.611Z,994.51
2016-09-04T15:28:14.902Z,994.5
2016-09-04T15:29:27.220Z,994.48
2016-09-04T15:30:39.521Z,994.45
2016-09-04T15:31:51.830Z,994.4
2016-09-04T15:33:03.532Z,994.43